createdAt,value
2023-04-08T00:01:55.503Z,1.30
2023-04-08T00:06:58.333Z,2.33
2023-04-08T00:12:01.658Z,1.05
2023-04-08T00:22:07.320Z,0.77
2023-04-08T00:27:10.106Z,0.80
2023-04-08T00:32:13.491Z,1.50
2023-04-08T00:37:16.585Z,1.65
2023-04-08T00:42:19.245Z,1.65
2023-04-08T00:47:23.050Z,2.00
2023-04-08T00:52:26.146Z,1.20
2023-04-08T00:57:29.141Z,1.60
2023-04-08T01:03:04.138Z,1.13
2023-04-08T01:08:08.171Z,0.77
2023-04-08T01:13:13.338Z,1.48
2023-04-08T01:18:16.864Z,1.30
2023-04-08T01:23:31.637Z,1.30
2023-04-08T01:28:34.799Z,0.60
2023-04-08T01:33:37.775Z,1.80
2023-04-08T01:38:40.958Z,1.65
2023-04-08T01:48:46.775Z,2.70
2023-04-08T01:53:49.592Z,2.00
2023-04-08T01:58:53.667Z,2.20
2023-04-08T02:03:57.918Z,3.20
2023-04-08T02:09:01.557Z,3.95
2023-04-08T02:14:04.342Z,2.78
2023-04-08T02:19:14.992Z,3.03
2023-04-08T02:24:19.497Z,3.65
2023-04-08T02:29:23.202Z,3.28
2023-04-08T02:34:30.957Z,3.60
2023-04-08T02:39:33.935Z,3.25
2023-04-08T02:44:36.717Z,2.27
2023-04-08T02:49:39.559Z,2.97
2023-04-08T02:54:42.275Z,2.10
2023-04-08T02:59:44.979Z,1.88
2023-04-08T03:04:47.714Z,1.58
2023-04-08T03:09:51.353Z,1.08
2023-04-08T03:14:54.585Z,1.42
2023-04-08T03:19:57.350Z,1.27
2023-04-08T03:25:00.343Z,0.77
2023-04-08T03:30:03.334Z,1.13
2023-04-08T03:35:07.004Z,1.00
2023-04-08T03:40:10.473Z,1.77
2023-04-08T03:45:13.357Z,2.13
2023-04-08T03:50:16.442Z,1.75
2023-04-08T03:55:19.161Z,1.57
2023-04-08T04:00:21.900Z,1.55
2023-04-08T04:05:24.645Z,1.48
2023-04-08T04:10:27.389Z,0.98
2023-04-08T04:15:30.153Z,1.55
2023-04-08T04:20:32.969Z,1.75
2023-04-08T04:25:36.045Z,1.05
2023-04-08T04:30:39.671Z,1.45
2023-04-08T04:35:42.680Z,1.10
2023-04-08T04:40:45.771Z,0.68
2023-04-08T04:45:48.794Z,1.10
2023-04-08T04:50:58.202Z,0.70
2023-04-08T04:56:03.763Z,1.17
2023-04-08T05:01:06.734Z,0.77
2023-04-08T05:06:09.605Z,1.13
2023-04-08T05:11:12.972Z,0.90
2023-04-08T05:16:15.685Z,1.10
2023-04-08T05:21:18.535Z,0.95
2023-04-08T05:26:22.160Z,1.20
2023-04-08T05:31:25.233Z,0.43
2023-04-08T05:36:28.555Z,1.50
2023-04-08T05:41:31.395Z,0.93
2023-04-08T05:46:34.164Z,1.60
2023-04-08T05:51:37.044Z,0.88
2023-04-08T05:56:39.841Z,1.42
2023-04-08T06:01:42.764Z,0.95
2023-04-08T06:06:45.578Z,1.80
2023-04-08T06:11:50.141Z,1.65
2023-04-08T06:16:55.033Z,2.30
2023-04-08T06:21:59.433Z,2.28
2023-04-08T06:32:06.531Z,1.35
2023-04-08T06:42:11.847Z,1.20
2023-04-08T06:47:28.846Z,2.08
2023-04-08T06:52:31.631Z,1.52
2023-04-08T06:57:34.364Z,1.77
2023-04-08T07:02:37.316Z,2.15
2023-04-08T07:07:40.134Z,1.25
2023-04-08T07:12:43.069Z,1.38
2023-04-08T07:17:46.663Z,2.42
2023-04-08T07:22:50.008Z,2.50
2023-04-08T07:27:53.260Z,1.73
2023-04-08T07:33:00.031Z,1.17
2023-04-08T07:38:03.744Z,2.28
2023-04-08T07:43:06.718Z,2.40
2023-04-08T07:48:09.400Z,2.25
2023-04-08T07:53:12.497Z,1.40
2023-04-08T07:58:15.362Z,0.73
2023-04-08T08:03:18.441Z,0.93
2023-04-08T08:08:21.704Z,1.23
2023-04-08T08:13:24.500Z,1.63
2023-04-08T08:18:27.503Z,1.35
2023-04-08T08:23:30.258Z,1.35
2023-04-08T08:28:36.046Z,1.30
2023-04-08T08:33:38.877Z,2.30
2023-04-08T08:38:41.647Z,1.50
2023-04-08T08:43:45.509Z,1.40
2023-04-08T08:48:48.394Z,0.43
2023-04-08T08:53:51.342Z,1.17
2023-04-08T08:58:55.237Z,1.17
2023-04-08T09:04:20.874Z,1.45
2023-04-08T09:09:23.792Z,1.55
2023-04-08T09:14:26.624Z,0.90
2023-04-08T09:19:29.392Z,1.30
2023-04-08T09:24:32.360Z,1.00
2023-04-08T09:29:38.218Z,1.35
2023-04-08T09:34:42.403Z,1.73
2023-04-08T09:39:45.602Z,1.17
2023-04-08T09:44:48.577Z,1.77
2023-04-08T09:49:58.896Z,1.35
2023-04-08T09:55:06.870Z,1.80
2023-04-08T10:00:16.661Z,1.50
2023-04-08T10:05:20.062Z,0.85
2023-04-08T10:10:23.052Z,1.70
2023-04-08T10:15:33.202Z,1.58
2023-04-08T10:20:39.043Z,1.45
2023-04-08T10:25:43.371Z,1.25
2023-04-08T10:30:47.662Z,1.17
2023-04-08T10:36:15.683Z,1.77
2023-04-08T10:41:24.985Z,1.42
2023-04-08T10:46:38.861Z,1.73
2023-04-08T10:56:55.137Z,1.38
2023-04-08T11:01:58.915Z,1.10
2023-04-08T11:07:06.182Z,2.40
2023-04-08T11:12:09.082Z,1.60
2023-04-08T11:17:13.176Z,1.42
2023-04-08T11:22:17.054Z,1.40
2023-04-08T11:27:20.269Z,1.80
2023-04-08T11:32:23.734Z,2.45
2023-04-08T11:37:29.656Z,1.50
2023-04-08T11:42:33.456Z,1.90
2023-04-08T11:47:36.956Z,2.13
2023-04-08T11:52:50.400Z,1.98
2023-04-08T11:57:53.949Z,1.92
2023-04-08T12:02:56.800Z,2.65
2023-04-08T12:07:59.768Z,5.18
2023-04-08T12:13:02.418Z,2.33
2023-04-08T12:18:06.228Z,1.63
2023-04-08T12:23:08.992Z,2.10
2023-04-08T12:28:12.111Z,2.40
2023-04-08T12:33:14.799Z,2.13
2023-04-08T12:38:17.991Z,2.40
2023-04-08T12:43:21.360Z,1.80
2023-04-08T12:48:24.170Z,1.50
2023-04-08T12:53:27.056Z,1.42
2023-04-08T12:58:29.748Z,1.08
2023-04-08T13:03:32.561Z,1.33
2023-04-08T13:08:35.412Z,1.30
2023-04-08T13:13:38.162Z,2.13
2023-04-08T13:18:41.657Z,2.97
2023-04-08T13:23:44.544Z,1.65
2023-04-08T13:28:56.630Z,2.33
2023-04-08T13:34:00.591Z,2.33
2023-04-08T13:39:03.392Z,1.73
2023-04-08T13:44:06.088Z,2.30
2023-04-08T13:49:09.956Z,2.17
2023-04-08T13:54:12.677Z,1.97
2023-04-08T13:59:15.681Z,1.27
2023-04-08T14:04:18.784Z,1.50
2023-04-08T14:09:21.683Z,1.52
2023-04-08T14:14:24.449Z,1.38
2023-04-08T14:19:27.167Z,1.00
2023-04-08T14:24:29.898Z,1.40
2023-04-08T14:29:32.699Z,1.92
2023-04-08T14:34:35.659Z,1.75
2023-04-08T14:39:38.493Z,1.30
2023-04-08T14:44:41.758Z,1.13
2023-04-08T14:49:44.545Z,1.42
2023-04-08T14:54:48.380Z,1.08
2023-04-08T14:59:51.813Z,0.73
2023-04-08T15:04:54.415Z,1.20
2023-04-08T15:09:57.283Z,1.50
2023-04-08T15:15:00.033Z,1.30
2023-04-08T15:20:02.809Z,1.75
2023-04-08T15:25:09.247Z,1.20
2023-04-08T15:30:12.501Z,1.27
2023-04-08T15:35:15.356Z,1.35
2023-04-08T15:40:18.223Z,1.13
2023-04-08T15:45:21.129Z,0.70
2023-04-08T15:50:23.866Z,1.58
2023-04-08T15:55:26.817Z,0.88
2023-04-08T16:00:29.551Z,1.48
2023-04-08T16:05:34.624Z,0.77
2023-04-08T16:10:37.690Z,1.08
2023-04-08T16:15:40.388Z,0.95
2023-04-08T16:20:43.124Z,1.08
2023-04-08T16:25:46.313Z,2.33
2023-04-08T16:30:49.203Z,1.38
2023-04-08T16:35:52.992Z,1.27
2023-04-08T16:40:59.014Z,1.33
2023-04-08T16:46:11.125Z,1.60
2023-04-08T16:51:13.970Z,1.40
2023-04-08T16:56:16.992Z,3.03
2023-04-08T17:01:20.243Z,1.98
2023-04-08T17:06:22.961Z,1.38
2023-04-08T17:11:25.842Z,1.38
2023-04-08T17:16:29.421Z,2.47
2023-04-08T17:21:32.828Z,1.42
2023-04-08T17:26:35.602Z,3.03
2023-04-08T17:31:40.238Z,1.42
2023-04-08T17:36:43.414Z,3.00
2023-04-08T17:41:46.564Z,3.80
2023-04-08T17:46:49.212Z,2.25
2023-04-08T17:51:52.096Z,2.33
2023-04-08T17:56:54.799Z,2.90
2023-04-08T18:01:57.542Z,2.70
2023-04-08T18:07:04.195Z,3.63
2023-04-08T18:12:07.056Z,3.13
2023-04-08T18:17:10.115Z,2.10
2023-04-08T18:22:12.847Z,2.58
2023-04-08T18:27:15.643Z,2.47
2023-04-08T18:32:18.389Z,2.80
2023-04-08T18:37:22.055Z,3.45
2023-04-08T18:42:24.829Z,3.15
2023-04-08T18:47:27.838Z,3.10
2023-04-08T18:52:32.490Z,3.13
2023-04-08T18:57:36.203Z,2.22
2023-04-08T19:02:39.181Z,2.20
2023-04-08T19:07:41.900Z,2.60
2023-04-08T19:12:44.624Z,4.05
2023-04-08T19:17:47.501Z,2.42
2023-04-08T19:22:50.666Z,3.80
2023-04-08T19:27:53.469Z,3.30
2023-04-08T19:32:56.168Z,3.65
2023-04-08T19:37:58.980Z,3.30
2023-04-08T19:43:01.706Z,4.40
2023-04-08T19:48:04.531Z,2.53
2023-04-08T19:53:07.240Z,2.80
2023-04-08T19:58:09.932Z,3.10
2023-04-08T20:03:14.202Z,3.63
2023-04-08T20:13:19.946Z,2.67
2023-04-08T20:18:23.192Z,3.80
2023-04-08T20:23:26.990Z,2.65
2023-04-08T20:28:29.942Z,3.08
2023-04-08T20:33:32.839Z,3.90
2023-04-08T20:38:37.214Z,2.83
2023-04-08T20:43:39.944Z,3.22
2023-04-08T20:48:42.750Z,3.28
2023-04-08T20:53:45.405Z,3.47
2023-04-08T20:58:49.670Z,1.98
2023-04-08T21:03:53.061Z,3.25
2023-04-08T21:08:55.809Z,3.60
2023-04-08T21:13:58.491Z,3.50
2023-04-08T21:19:02.295Z,3.28
2023-04-08T21:24:07.358Z,2.40
2023-04-08T21:29:11.766Z,3.67
2023-04-08T21:34:14.796Z,3.90
2023-04-08T21:39:17.516Z,2.30
2023-04-08T21:44:20.291Z,3.63
2023-04-08T21:49:23.137Z,3.03
2023-04-08T21:54:26.254Z,1.73
2023-04-08T21:59:28.982Z,3.40
2023-04-08T22:04:31.742Z,2.78
2023-04-08T22:09:34.820Z,3.33
2023-04-08T22:14:38.051Z,2.92
2023-04-08T22:19:40.753Z,4.25
2023-04-08T22:24:43.423Z,5.60
2023-04-08T22:29:46.300Z,2.95
2023-04-08T22:34:49.318Z,2.83
2023-04-08T22:39:52.124Z,3.00
2023-04-08T22:44:54.848Z,3.17
2023-04-08T22:49:58.201Z,4.07
2023-04-08T22:55:01.212Z,2.78
2023-04-08T23:00:06.153Z,2.70
2023-04-08T23:05:09.376Z,3.22
2023-04-08T23:10:12.345Z,3.42
2023-04-08T23:15:15.174Z,3.80
2023-04-08T23:20:17.972Z,3.22
2023-04-08T23:25:20.724Z,2.08
2023-04-08T23:30:23.500Z,3.88
2023-04-08T23:35:26.242Z,3.90
2023-04-08T23:40:28.952Z,4.15
2023-04-08T23:45:31.662Z,3.72
2023-04-08T23:50:34.495Z,3.15
2023-04-08T23:55:37.124Z,3.15
